createdAt,value
2016-08-05T00:00:45.548Z,1113.63
2016-08-05T00:01:45.576Z,1113.4
2016-08-05T00:02:45.559Z,1113.65
2016-08-05T00:03:45.576Z,1113.17
2016-08-05T00:04:45.556Z,1113.03
2016-08-05T00:05:45.575Z,1112.99
2016-08-05T00:06:45.575Z,1112.84
2016-08-05T00:07:45.555Z,1112.55
2016-08-05T00:08:45.595Z,1112.4
2016-08-05T00:09:45.574Z,1112.04
2016-08-05T00:10:45.579Z,1111.85
2016-08-05T00:11:45.572Z,1111.83
2016-08-05T00:12:45.579Z,1111.71
2016-08-05T00:13:45.568Z,1111.66
2016-08-05T00:14:45.577Z,1111.5
2016-08-05T00:15:45.596Z,1110.93
2016-08-05T00:16:45.580Z,1111.06
2016-08-05T00:17:45.593Z,1110.5
2016-08-05T00:18:45.582Z,1110.29
2016-08-05T00:20:45.595Z,1109.94
2016-08-05T00:21:45.576Z,1109.61
2016-08-05T00:22:45.568Z,1109.6
2016-08-05T00:23:45.586Z,1109.19
2016-08-05T00:24:45.580Z,1108.91
2016-08-05T00:25:45.574Z,1108.85
2016-08-05T00:26:45.595Z,1108.72
2016-08-05T00:27:45.585Z,1108.32
2016-08-05T00:28:45.586Z,1107.91
2016-08-05T00:29:45.603Z,1107.87
2016-08-05T00:30:45.607Z,1107.87
2016-08-05T00:31:45.618Z,1107.72
2016-08-05T00:32:45.621Z,1107.53
2016-08-05T00:33:45.582Z,1107.4
2016-08-05T00:34:45.606Z,1106.77
2016-08-05T00:35:45.577Z,1106.69
2016-08-05T00:36:45.598Z,1106.56
2016-08-05T00:37:45.589Z,1106.33
2016-08-05T00:38:45.605Z,1106.09
2016-08-05T00:39:45.611Z,1105.84
2016-08-05T00:40:45.584Z,1105.8
2016-08-05T00:41:45.576Z,1105.67
2016-08-05T00:42:45.589Z,1105.74
2016-08-05T00:43:45.633Z,1105.62
2016-08-05T00:44:45.625Z,1105.76
2016-08-05T00:45:45.611Z,1105.33
2016-08-05T00:46:45.600Z,1105.43
2016-08-05T00:47:45.625Z,1105.38
2016-08-05T00:48:45.607Z,1105.28
2016-08-05T00:49:45.619Z,1105.24
2016-08-05T00:50:45.602Z,1105.2
2016-08-05T00:51:45.606Z,1105.39
2016-08-05T00:52:45.604Z,1105.38
2016-08-05T00:53:45.600Z,1105.29
2016-08-05T00:54:45.613Z,1105.49
2016-08-05T00:55:45.613Z,1105.35
2016-08-05T00:56:45.599Z,1105.53
2016-08-05T00:57:45.608Z,1105.3
2016-08-05T00:58:45.609Z,1105.06
2016-08-05T00:59:45.598Z,1104.98
2016-08-05T01:00:45.613Z,1104.86
2016-08-05T01:01:45.606Z,1104.87
2016-08-05T01:02:45.607Z,1104.78
2016-08-05T01:03:45.641Z,1104.48
2016-08-05T01:04:46.222Z,1104.72
2016-08-05T01:05:45.611Z,1104.62
2016-08-05T01:06:45.678Z,1104.67
2016-08-05T01:07:45.623Z,1104.37
2016-08-05T01:08:45.619Z,1104.4
2016-08-05T01:09:45.622Z,1104.21
2016-08-05T01:10:45.608Z,1104.14
2016-08-05T01:11:45.617Z,1104.1
2016-08-05T01:12:45.612Z,1103.88
2016-08-05T01:13:45.603Z,1103.81
2016-08-05T01:14:45.668Z,1103.81
2016-08-05T01:15:45.614Z,1103.64
2016-08-05T01:16:45.611Z,1103.65
2016-08-05T01:17:45.638Z,1103.68
2016-08-05T01:18:45.623Z,1103.57
2016-08-05T01:19:45.641Z,1103.48
2016-08-05T01:20:45.604Z,1103.48
2016-08-05T01:21:45.623Z,1103.44
2016-08-05T01:22:45.610Z,1103.46
2016-08-05T01:23:45.641Z,1103.4
2016-08-05T01:24:45.631Z,1103.25
2016-08-05T01:25:45.644Z,1103.11
2016-08-05T01:26:45.621Z,1103.17
2016-08-05T01:27:45.631Z,1103.03
2016-08-05T01:28:45.649Z,1102.62
2016-08-05T01:29:45.667Z,1102.84
2016-08-05T01:30:45.640Z,1102.56
2016-08-05T01:31:45.638Z,1102.51
2016-08-05T01:32:45.645Z,1102.31
2016-08-05T01:33:45.647Z,1102.12
2016-08-05T01:34:45.673Z,1101.66
2016-08-05T01:35:45.628Z,1101.5
2016-08-05T01:36:45.623Z,1100.97
2016-08-05T01:37:45.631Z,1100.8
2016-08-05T01:38:45.624Z,1100.58
2016-08-05T01:39:45.626Z,1100.44
2016-08-05T01:40:45.647Z,1100
2016-08-05T01:41:45.643Z,1100.03
2016-08-05T01:42:45.649Z,1099.66
2016-08-05T01:43:45.644Z,1099.7
2016-08-05T01:44:45.643Z,1099.36
2016-08-05T01:45:45.642Z,1099.14
2016-08-05T01:46:45.634Z,1098.69
2016-08-05T01:47:45.644Z,1098.67
2016-08-05T01:48:45.651Z,1098.59
2016-08-05T01:49:45.672Z,1098.39
2016-08-05T01:50:45.660Z,1098.08
2016-08-05T01:51:45.646Z,1097.68
2016-08-05T01:52:45.644Z,1097.66
2016-08-05T01:53:45.671Z,1097.47
2016-08-05T01:54:45.643Z,1097.37
2016-08-05T01:55:45.636Z,1097.18
2016-08-05T01:56:45.639Z,1096.97
2016-08-05T01:57:45.640Z,1096.89
2016-08-05T01:58:45.670Z,1096.96
2016-08-05T01:59:45.653Z,1096.67
2016-08-05T02:00:45.660Z,1096.66
2016-08-05T02:01:45.670Z,1096.37
2016-08-05T02:02:45.673Z,1096.15
2016-08-05T02:03:45.670Z,1096.05
2016-08-05T02:04:45.652Z,1096.01
2016-08-05T02:05:45.659Z,1095.81
2016-08-05T02:06:45.665Z,1095.78
2016-08-05T02:07:45.654Z,1095.75
2016-08-05T02:08:45.657Z,1095.52
2016-08-05T02:09:45.663Z,1095.25
2016-08-05T02:10:45.678Z,1095.22
2016-08-05T02:11:45.664Z,1094.93
2016-08-05T02:12:45.669Z,1094.77
2016-08-05T02:13:45.671Z,1094.38
2016-08-05T02:14:45.670Z,1093.86
2016-08-05T02:15:45.670Z,1093.89
2016-08-05T02:16:45.671Z,1093.79
2016-08-05T02:17:45.660Z,1093.9
2016-08-05T02:18:45.701Z,1093.34
2016-08-05T02:19:45.674Z,1093.16
2016-08-05T02:20:45.672Z,1092.98
2016-08-05T02:21:45.672Z,1092.81
2016-08-05T02:22:45.674Z,1092.57
2016-08-05T02:23:45.669Z,1092.4
2016-08-05T02:24:45.661Z,1092.43
2016-08-05T02:25:45.668Z,1092.11
2016-08-05T02:26:45.676Z,1091.84
2016-08-05T02:27:45.671Z,1091.72
2016-08-05T02:28:45.672Z,1091.68
2016-08-05T02:29:45.688Z,1091.68
2016-08-05T02:30:45.670Z,1091.63
2016-08-05T02:31:45.670Z,1091.5
2016-08-05T02:32:45.694Z,1091.18
2016-08-05T02:33:45.673Z,1091.37
2016-08-05T02:34:45.673Z,1091.41
2016-08-05T02:35:45.681Z,1091.47
2016-08-05T02:36:45.673Z,1091.74
2016-08-05T02:37:45.673Z,1091.49
2016-08-05T02:38:45.674Z,1091.7
2016-08-05T02:39:45.671Z,1091.93
2016-08-05T02:40:45.704Z,1091.98
2016-08-05T02:41:45.690Z,1092.13
2016-08-05T02:42:45.702Z,1092.21
2016-08-05T02:43:45.690Z,1092.19
2016-08-05T02:44:45.677Z,1092.01
2016-08-05T02:45:45.717Z,1092.2
2016-08-05T02:46:45.699Z,1091.62
2016-08-05T02:47:45.695Z,1092.12
2016-08-05T02:48:45.706Z,1091.71
2016-08-05T02:49:45.703Z,1091.75
2016-08-05T02:50:45.703Z,1091.68
2016-08-05T02:51:45.707Z,1091.83
2016-08-05T02:52:45.693Z,1091.6
2016-08-05T02:53:45.689Z,1091.85
2016-08-05T02:54:45.696Z,1091.86
2016-08-05T02:55:45.704Z,1091.95
2016-08-05T02:56:45.710Z,1091.97
2016-08-05T02:57:45.710Z,1091.73
2016-08-05T02:58:45.699Z,1091.74
2016-08-05T02:59:45.722Z,1091.8
2016-08-05T03:00:45.703Z,1091.65
2016-08-05T03:01:45.690Z,1091.76
2016-08-05T03:02:45.698Z,1091.7
2016-08-05T03:03:45.703Z,1091.47
2016-08-05T03:04:45.744Z,1091.64
2016-08-05T03:05:45.700Z,1091.46
2016-08-05T03:06:45.711Z,1091.5
2016-08-05T03:07:45.701Z,1091.68
2016-08-05T03:08:45.709Z,1091.27
2016-08-05T03:09:45.714Z,1091.16
2016-08-05T03:10:45.705Z,1091.24
2016-08-05T03:11:45.713Z,1091.35
2016-08-05T03:12:45.719Z,1091.23
2016-08-05T03:13:45.715Z,1091.25
2016-08-05T03:14:45.750Z,1091.25
2016-08-05T03:15:45.736Z,1091.17
2016-08-05T03:16:45.708Z,1091.02
2016-08-05T03:17:45.743Z,1091.05
2016-08-05T03:18:45.735Z,1090.73
2016-08-05T03:19:45.741Z,1090.85
2016-08-05T03:20:45.737Z,1091.02
2016-08-05T03:21:45.713Z,1090.51
2016-08-05T03:22:45.715Z,1090.46
2016-08-05T03:23:45.734Z,1090.19
2016-08-05T03:24:45.723Z,1090.15
2016-08-05T03:25:45.735Z,1089.95
2016-08-05T03:26:45.739Z,1089.72
2016-08-05T03:27:45.742Z,1089.62
2016-08-05T03:28:45.778Z,1089.25
2016-08-05T03:29:45.729Z,1089
2016-08-05T03:30:45.768Z,1088.96
2016-08-05T03:31:45.740Z,1088.48
2016-08-05T03:32:45.728Z,1088.44
2016-08-05T03:33:45.736Z,1088.53
2016-08-05T03:34:45.740Z,1088.49
2016-08-05T03:35:45.737Z,1088.47
2016-08-05T03:36:45.728Z,1088.23
2016-08-05T03:37:45.778Z,1088.33
2016-08-05T03:38:45.726Z,1088.22
2016-08-05T03:39:45.736Z,1087.9
2016-08-05T03:40:45.745Z,1087.82
2016-08-05T03:41:45.740Z,1087.62
2016-08-05T03:42:45.749Z,1087.66
2016-08-05T03:43:45.776Z,1087.6
2016-08-05T03:44:45.752Z,1087.25
2016-08-05T03:45:45.773Z,1087.43
2016-08-05T03:46:45.737Z,1086.97
2016-08-05T03:47:45.745Z,1086.99
2016-08-05T03:48:45.738Z,1086.99
2016-08-05T03:49:45.743Z,1086.72
2016-08-05T03:50:45.742Z,1086.9
2016-08-05T03:51:45.747Z,1086.71
2016-08-05T03:52:45.793Z,1086.73
2016-08-05T03:53:45.768Z,1086.51
2016-08-05T03:54:45.742Z,1086.72
2016-08-05T03:55:45.741Z,1086.68
2016-08-05T03:56:45.962Z,1086.5
2016-08-05T03:57:45.763Z,1086.41
2016-08-05T03:58:45.770Z,1086.34
2016-08-05T03:59:45.754Z,1086.29
2016-08-05T04:00:45.769Z,1086.42
2016-08-05T04:01:45.998Z,1086.14
2016-08-05T04:02:45.799Z,1086.01
2016-08-05T04:03:45.775Z,1085.95
2016-08-05T04:04:45.839Z,1085.98
2016-08-05T04:05:45.956Z,1086.11
2016-08-05T04:06:45.751Z,1086.07
2016-08-05T04:07:45.859Z,1086.19
2016-08-05T04:08:45.805Z,1086.38
2016-08-05T04:09:45.811Z,1086.45
2016-08-05T04:10:45.769Z,1086.72
2016-08-05T04:11:45.759Z,1086.78
2016-08-05T04:12:45.768Z,1087.25
2016-08-05T04:13:45.831Z,1087.33
2016-08-05T04:14:45.948Z,1087.48
2016-08-05T04:15:46.026Z,1087.56
2016-08-05T04:16:45.826Z,1087.92
2016-08-05T04:17:45.792Z,1088.15
2016-08-05T04:18:45.769Z,1088.59
2016-08-05T04:19:45.854Z,1088.75
2016-08-05T04:20:45.771Z,1088.99
2016-08-05T04:21:45.775Z,1089.59
2016-08-05T04:22:45.993Z,1090.08
2016-08-05T04:23:45.781Z,1090.41
2016-08-05T04:24:45.872Z,1090.93
2016-08-05T04:26:45.913Z,1091.74
2016-08-05T04:27:45.774Z,1092.35
2016-08-05T04:28:45.883Z,1093.41
2016-08-05T04:29:46.469Z,1094.56
2016-08-05T04:30:45.783Z,1095.43
2016-08-05T04:31:45.777Z,1096.46
2016-08-05T04:32:45.798Z,1097.3
2016-08-05T04:33:45.780Z,1098.31
2016-08-05T04:34:45.775Z,1098.99
2016-08-05T04:35:45.778Z,1099.87
2016-08-05T04:36:45.799Z,1100.59
2016-08-05T04:37:45.794Z,1101.99
2016-08-05T04:38:45.769Z,1102.73
2016-08-05T04:39:45.797Z,1103.97
2016-08-05T04:41:45.787Z,1105.69
2016-08-05T04:42:45.834Z,1106.49
2016-08-05T04:43:45.783Z,1107.44
2016-08-05T04:44:45.791Z,1108.5
2016-08-05T04:45:45.800Z,1109.49
2016-08-05T04:46:45.792Z,1110.69
2016-08-05T04:47:45.802Z,1111.65
2016-08-05T04:48:45.783Z,1112.67
2016-08-05T04:49:45.795Z,1113.99
2016-08-05T04:50:45.799Z,1115.43
2016-08-05T04:51:45.812Z,1117.02
2016-08-05T04:52:45.781Z,1118.96
2016-08-05T04:53:45.803Z,1120.29
2016-08-05T04:54:45.803Z,1121.64
2016-08-05T04:55:45.801Z,1122.92
2016-08-05T04:56:45.807Z,1124.28
2016-08-05T04:57:45.801Z,1125.7
2016-08-05T04:58:45.807Z,1127.01
2016-08-05T04:59:45.819Z,1128.34
2016-08-05T05:00:45.804Z,1130.35
2016-08-05T05:01:45.811Z,1131.66
2016-08-05T05:02:45.798Z,1133.04
2016-08-05T05:03:45.805Z,1134
2016-08-05T05:04:45.812Z,1134.53
2016-08-05T05:05:45.806Z,1134.68
2016-08-05T05:06:45.809Z,1134.75
2016-08-05T05:07:45.805Z,1135.01
2016-08-05T05:08:45.819Z,1135.41
2016-08-05T05:09:45.836Z,1135.67
2016-08-05T05:10:45.828Z,1135.97
2016-08-05T05:11:45.815Z,1136.21
2016-08-05T05:12:45.810Z,1136.52
2016-08-05T05:13:45.831Z,1136.36
2016-08-05T05:14:45.828Z,1136.59
2016-08-05T05:15:45.829Z,1136.5
2016-08-05T05:16:45.839Z,1136.41
2016-08-05T05:17:45.838Z,1136.34
2016-08-05T05:18:45.827Z,1136.27
2016-08-05T05:19:45.813Z,1136.05
2016-08-05T05:20:45.838Z,1136.27
2016-08-05T05:21:45.831Z,1137.13
2016-08-05T05:22:45.829Z,1137.98
2016-08-05T05:23:45.830Z,1138.74
2016-08-05T05:24:45.818Z,1139.11
2016-08-05T05:25:45.837Z,1138.84
2016-08-05T05:26:45.833Z,1138.7
2016-08-05T05:27:45.838Z,1138.4
2016-08-05T05:28:45.850Z,1137.72
2016-08-05T05:29:45.828Z,1137.1
2016-08-05T05:30:45.827Z,1136.42
2016-08-05T05:31:45.832Z,1135.92
2016-08-05T05:32:45.826Z,1135.38
2016-08-05T05:33:45.831Z,1134.78
2016-08-05T05:34:45.839Z,1134.49
2016-08-05T05:35:45.832Z,1134.23
2016-08-05T05:36:45.835Z,1134.29
2016-08-05T05:37:45.841Z,1134.21
2016-08-05T05:38:45.834Z,1133.98
2016-08-05T05:39:45.835Z,1134.08
2016-08-05T05:40:45.833Z,1134.81
2016-08-05T05:41:45.838Z,1135.55
2016-08-05T05:42:45.831Z,1136.45
2016-08-05T05:43:45.833Z,1137.31
2016-08-05T05:44:45.843Z,1137.85
2016-08-05T05:45:45.867Z,1137.65
2016-08-05T05:46:45.840Z,1138.48
2016-08-05T05:47:45.834Z,1140.45
2016-08-05T05:48:45.848Z,1142.11
2016-08-05T05:49:45.838Z,1142.86
2016-08-05T05:50:45.837Z,1144.24
2016-08-05T05:51:45.865Z,1145.33
2016-08-05T05:52:45.837Z,1146.07
2016-08-05T05:53:45.867Z,1147.33
2016-08-05T05:54:45.865Z,1149.48
2016-08-05T05:55:45.853Z,1152.02
2016-08-05T05:56:45.864Z,1154.02
2016-08-05T05:57:45.868Z,1155.17
2016-08-05T05:58:45.868Z,1155.99
2016-08-05T05:59:45.869Z,1156.49
2016-08-05T06:00:45.872Z,1156.75
2016-08-05T06:01:45.860Z,1156.97
2016-08-05T06:02:45.857Z,1157.21
2016-08-05T06:03:45.866Z,1157.39
2016-08-05T06:04:45.865Z,1157.45
2016-08-05T06:05:45.855Z,1157.09
2016-08-05T06:06:45.851Z,1156.75
2016-08-05T06:07:45.865Z,1156.33
2016-08-05T06:08:45.864Z,1156.08
2016-08-05T06:09:45.861Z,1155.72
2016-08-05T06:10:45.884Z,1155.51
2016-08-05T06:11:45.857Z,1155.36
2016-08-05T06:12:45.865Z,1155.24
2016-08-05T06:13:45.870Z,1155.55
2016-08-05T06:14:45.864Z,1155.83
2016-08-05T06:15:45.864Z,1156.33
2016-08-05T06:16:45.866Z,1157.04
2016-08-05T06:17:45.860Z,1157.3
2016-08-05T06:18:45.876Z,1157.8
2016-08-05T06:19:45.878Z,1158.18
2016-08-05T06:20:45.871Z,1158.51
2016-08-05T06:21:45.857Z,1158.72
2016-08-05T06:22:45.870Z,1158.85
2016-08-05T06:23:45.875Z,1158.94
2016-08-05T06:24:45.886Z,1159.04
2016-08-05T06:25:45.871Z,1159.12
2016-08-05T06:26:45.898Z,1159.05
2016-08-05T06:27:45.870Z,1159.07
2016-08-05T06:28:45.892Z,1159.05
2016-08-05T06:29:45.900Z,1158.98
2016-08-05T06:30:45.896Z,1158.89
2016-08-05T06:31:45.893Z,1158.75
2016-08-05T06:32:45.899Z,1158.49
2016-08-05T06:33:45.900Z,1158.1
2016-08-05T06:34:45.886Z,1157.62
2016-08-05T06:35:45.883Z,1156.96
2016-08-05T06:36:45.878Z,1156.29
2016-08-05T06:37:45.898Z,1155.69
2016-08-05T06:38:45.894Z,1154.98
2016-08-05T06:39:45.884Z,1154.54
2016-08-05T06:40:45.901Z,1154.38
2016-08-05T06:41:45.898Z,1153.69
2016-08-05T06:42:45.912Z,1152.97
2016-08-05T06:43:45.898Z,1152.65
2016-08-05T06:44:45.905Z,1152.58
2016-08-05T06:45:45.894Z,1152.86
2016-08-05T06:46:45.892Z,1153.49
2016-08-05T06:47:45.929Z,1154.41
2016-08-05T06:48:45.899Z,1155.06
2016-08-05T06:49:45.892Z,1155.45
2016-08-05T06:50:45.917Z,1155.2
2016-08-05T06:51:45.899Z,1154.69
2016-08-05T06:52:45.900Z,1154.4
2016-08-05T06:53:45.895Z,1154.19
2016-08-05T06:54:45.898Z,1153.8
2016-08-05T06:55:45.905Z,1153.63
2016-08-05T06:56:45.931Z,1153.34
2016-08-05T06:57:45.922Z,1153.24
2016-08-05T06:58:45.912Z,1153.44
2016-08-05T06:59:45.931Z,1153.8
2016-08-05T07:00:45.910Z,1153.62
2016-08-05T07:01:45.931Z,1153.37
2016-08-05T07:02:45.945Z,1153.8
2016-08-05T07:03:45.922Z,1154.55
2016-08-05T07:04:45.930Z,1155.01
2016-08-05T07:05:45.923Z,1154.85
2016-08-05T07:06:45.988Z,1153.86
2016-08-05T07:07:45.916Z,1151.87
2016-08-05T07:08:45.927Z,1150.06
2016-08-05T07:09:45.932Z,1148.8
2016-08-05T07:10:45.931Z,1147.95
2016-08-05T07:11:45.928Z,1147.89
2016-08-05T07:12:45.935Z,1148.71
2016-08-05T07:13:45.930Z,1150.06
2016-08-05T07:14:45.962Z,1150.77
2016-08-05T07:15:45.972Z,1151.01
2016-08-05T07:16:45.955Z,1150.96
2016-08-05T07:17:45.937Z,1150.67
2016-08-05T07:18:45.925Z,1149.89
2016-08-05T07:19:45.950Z,1149.82
2016-08-05T07:20:45.939Z,1150.89
2016-08-05T07:21:45.936Z,1151.42
2016-08-05T07:22:46.054Z,1151.98
2016-08-05T07:23:45.979Z,1152.6
2016-08-05T07:24:45.940Z,1153.07
2016-08-05T07:25:45.939Z,1153.2
2016-08-05T07:26:46.031Z,1153.56
2016-08-05T07:27:45.947Z,1153.59
2016-08-05T07:28:45.931Z,1153.4
2016-08-05T07:29:45.968Z,1153.15
2016-08-05T07:30:45.943Z,1153.58
2016-08-05T07:31:46.094Z,1153.9
2016-08-05T07:32:45.941Z,1153.88
2016-08-05T07:33:45.933Z,1153.7
2016-08-05T07:34:45.961Z,1153.96
2016-08-05T07:35:45.960Z,1153.69
2016-08-05T07:36:45.969Z,1153.61
2016-08-05T07:37:45.962Z,1154.02
2016-08-05T07:38:45.980Z,1154.14
2016-08-05T07:39:45.961Z,1153.36
2016-08-05T07:40:45.971Z,1152.46
2016-08-05T07:41:45.958Z,1151.76
2016-08-05T07:42:45.980Z,1149.81
2016-08-05T07:43:45.969Z,1146.41
2016-08-05T07:44:45.963Z,1142.51
2016-08-05T07:45:45.960Z,1138.98
2016-08-05T07:46:45.948Z,1135.72
2016-08-05T07:47:45.972Z,1132.08
2016-08-05T07:48:45.991Z,1128.82
2016-08-05T07:49:45.971Z,1125.76
2016-08-05T07:50:45.963Z,1124.1
2016-08-05T07:51:45.973Z,1123.87
2016-08-05T07:52:45.952Z,1122.84
2016-08-05T07:53:45.964Z,1120.62
2016-08-05T07:54:45.961Z,1117.86
2016-08-05T07:55:45.960Z,1114.58
2016-08-05T07:56:46.007Z,1113.76
2016-08-05T07:57:45.986Z,1114.53
2016-08-05T07:58:45.992Z,1114.28
2016-08-05T07:59:45.973Z,1113.38
2016-08-05T08:00:45.966Z,1111.95
2016-08-05T08:01:46.004Z,1111.31
2016-08-05T08:02:45.974Z,1110.27
2016-08-05T08:03:45.970Z,1112.16
2016-08-05T08:04:45.986Z,1113.61
2016-08-05T08:05:45.962Z,1114.77
2016-08-05T08:06:45.975Z,1116.31
2016-08-05T08:07:45.996Z,1116.91
2016-08-05T08:08:45.970Z,1116.55
2016-08-05T08:09:45.983Z,1116.55
2016-08-05T08:10:45.983Z,1116.49
2016-08-05T08:11:45.992Z,1115.85
2016-08-05T08:12:45.993Z,1114.79
2016-08-05T08:13:45.993Z,1113.31
2016-08-05T08:14:45.981Z,1113.91
2016-08-05T08:15:46.008Z,1114.5
2016-08-05T08:16:45.991Z,1116.43
2016-08-05T08:17:46.006Z,1119.71
2016-08-05T08:18:49.014Z,1122.28
2016-08-05T08:19:45.999Z,1124.03
2016-08-05T08:20:45.998Z,1126.33
2016-08-05T08:21:45.998Z,1127.79
2016-08-05T08:22:45.994Z,1129.69
2016-08-05T08:23:45.988Z,1131.03
2016-08-05T08:24:45.990Z,1131.67
2016-08-05T08:25:46.006Z,1132.36
2016-08-05T08:26:45.997Z,1133.29
2016-08-05T08:27:46.002Z,1134.94
2016-08-05T08:28:45.996Z,1136.58
2016-08-05T08:29:46.003Z,1137.17
2016-08-05T08:30:46.003Z,1136.92
2016-08-05T08:31:46.037Z,1136.17
2016-08-05T08:32:45.993Z,1135.79
2016-08-05T08:33:46.014Z,1135.83
2016-08-05T08:34:46.025Z,1136.74
2016-08-05T08:35:45.995Z,1137.59
2016-08-05T08:36:46.000Z,1137.92
2016-08-05T08:37:46.025Z,1137.75
2016-08-05T08:38:56.100Z,1137.55
2016-08-05T08:39:51.856Z,1138.48
2016-08-05T08:41:01.255Z,1138.73
2016-08-05T08:42:08.534Z,1138.88
2016-08-05T08:43:08.716Z,1138.9
2016-08-05T08:44:08.530Z,1138.7
2016-08-05T08:45:08.530Z,1137.67
2016-08-05T08:46:08.553Z,1137.31
2016-08-05T08:47:08.520Z,1137.22
2016-08-05T08:48:08.525Z,1135.75
2016-08-05T08:49:08.530Z,1131.65
2016-08-05T08:50:08.532Z,1128.7
2016-08-05T08:51:08.522Z,1127.26
2016-08-05T08:52:08.518Z,1125.6
2016-08-05T08:53:08.522Z,1123.26
2016-08-05T08:54:08.515Z,1121.23
2016-08-05T08:55:08.547Z,1119.57
2016-08-05T08:56:08.523Z,1118.01
2016-08-05T08:57:08.534Z,1116.43
2016-08-05T08:58:08.525Z,1113.99
2016-08-05T08:59:08.555Z,1111.18
2016-08-05T09:00:08.538Z,1109.4
2016-08-05T09:01:08.543Z,1108.12
2016-08-05T09:02:08.521Z,1105.47
2016-08-05T09:03:08.530Z,1099.51
2016-08-05T09:04:08.536Z,1094.94
2016-08-05T09:05:08.544Z,1092.26
2016-08-05T09:06:08.540Z,1089.42
2016-08-05T09:07:08.529Z,1085.59
2016-08-05T09:08:08.556Z,1083.62
2016-08-05T09:09:08.590Z,1080.89
2016-08-05T09:10:08.559Z,1076.86
2016-08-05T09:11:08.581Z,1074.48
2016-08-05T09:12:08.566Z,1075.44
2016-08-05T09:13:08.611Z,1075.25
2016-08-05T09:14:08.591Z,1073.74
2016-08-05T09:15:08.562Z,1069.97
2016-08-05T09:16:20.617Z,1066.74
2016-08-05T09:17:33.940Z,1064.54
2016-08-05T09:18:23.931Z,1063.73
2016-08-05T09:19:35.761Z,1062.93
2016-08-05T09:20:34.801Z,1063.25
2016-08-05T09:21:59.632Z,1058.25
2016-08-05T09:23:25.201Z,1053.53
2016-08-05T09:24:49.912Z,1049.81
2016-08-05T09:25:48.257Z,1048.16
2016-08-05T09:27:04.475Z,1046.94
2016-08-05T09:28:22.691Z,1047.88
2016-08-05T09:29:40.216Z,1051.59
2016-08-05T09:30:29.414Z,1055.55
2016-08-05T09:31:31.682Z,1060.22
2016-08-05T09:32:32.231Z,1064.95
2016-08-05T09:33:31.913Z,1068.42
2016-08-05T09:34:31.742Z,1068.67
2016-08-05T09:35:30.527Z,1064.9
2016-08-05T09:36:29.412Z,1062.62
2016-08-05T09:37:29.437Z,1063.29
2016-08-05T09:38:29.411Z,1063.79
2016-08-05T09:39:29.412Z,1062.59
2016-08-05T09:40:29.413Z,1059.4
2016-08-05T09:42:29.470Z,1055.49
2016-08-05T09:43:29.434Z,1056.02
2016-08-05T09:44:29.410Z,1059.13
2016-08-05T09:45:29.413Z,1062.85
2016-08-05T09:46:29.429Z,1066.28
2016-08-05T09:47:29.430Z,1067.99
2016-08-05T09:48:29.428Z,1066.53
2016-08-05T09:49:29.431Z,1066.66
2016-08-05T09:50:29.436Z,1069.45
2016-08-05T09:51:29.497Z,1072.19
2016-08-05T09:52:29.437Z,1075.69
2016-08-05T09:53:29.439Z,1078.64
2016-08-05T09:54:29.417Z,1080.18
2016-08-05T09:55:29.482Z,1081.6
2016-08-05T09:57:29.432Z,1082.72
2016-08-05T09:58:29.439Z,1081.1
2016-08-05T09:59:29.445Z,1079.08
2016-08-05T10:00:29.475Z,1075.72
2016-08-05T10:01:29.439Z,1071.8
2016-08-05T10:02:29.465Z,1067.61
2016-08-05T10:03:29.550Z,1062.68
2016-08-05T10:04:29.439Z,1057.98
2016-08-05T10:05:29.446Z,1054.64
2016-08-05T10:06:29.764Z,1052.26
2016-08-05T10:07:29.441Z,1049.17
2016-08-05T10:08:29.500Z,1045.84
2016-08-05T10:09:29.452Z,1043.37
2016-08-05T10:10:29.448Z,1038.41
2016-08-05T10:12:29.448Z,1030.62
2016-08-05T10:13:29.470Z,1031
2016-08-05T10:14:29.438Z,1031.16
2016-08-05T10:15:29.443Z,1032.19
2016-08-05T10:16:29.494Z,1033.66
2016-08-05T10:17:29.444Z,1033.57
2016-08-05T10:18:29.456Z,1032.26
2016-08-05T10:19:29.468Z,1033.38
2016-08-05T10:20:29.467Z,1035.08
2016-08-05T10:21:29.456Z,1034.16
2016-08-05T10:22:29.467Z,1028.49
2016-08-05T10:23:29.453Z,1019.85
2016-08-05T10:24:29.483Z,1011.4
2016-08-05T10:25:29.469Z,1005.55
2016-08-05T10:26:29.674Z,1001.73
2016-08-05T10:27:29.471Z,999.88
2016-08-05T10:28:29.956Z,1002.13
2016-08-05T10:29:29.468Z,1002.42
2016-08-05T10:30:29.475Z,1000.51
2016-08-05T10:31:29.466Z,998.27
2016-08-05T10:32:29.453Z,995.38
2016-08-05T10:33:29.477Z,994.83
2016-08-05T10:34:29.475Z,993.66
2016-08-05T10:35:29.471Z,993.24
2016-08-05T10:36:29.494Z,992.35
2016-08-05T10:37:29.477Z,991.83
2016-08-05T10:38:29.511Z,992.41
2016-08-05T10:39:29.469Z,991.08
2016-08-05T10:40:29.551Z,991.24
2016-08-05T10:41:29.564Z,995.39
2016-08-05T10:42:29.481Z,1000.15
2016-08-05T10:43:29.594Z,1006.92
2016-08-05T10:44:29.571Z,1013.02
2016-08-05T10:45:29.481Z,1019.45
2016-08-05T10:46:29.664Z,1023.96
2016-08-05T10:47:29.666Z,1026.71
2016-08-05T10:48:30.162Z,1028.8
2016-08-05T10:49:29.512Z,1029.75
2016-08-05T10:50:29.548Z,1032.95
2016-08-05T10:51:29.508Z,1037.74
2016-08-05T10:52:29.499Z,1043.41
2016-08-05T10:53:30.201Z,1047.96
2016-08-05T10:54:29.513Z,1049.79
2016-08-05T10:55:29.583Z,1048.48
2016-08-05T10:56:29.531Z,1047.72
2016-08-05T10:57:29.548Z,1046.82
2016-08-05T10:58:29.550Z,1046.63
2016-08-05T10:59:29.519Z,1046.58
2016-08-05T11:00:29.527Z,1044.5
2016-08-05T11:01:29.546Z,1040.84
2016-08-05T11:02:29.539Z,1035.29
2016-08-05T11:03:29.499Z,1029.58
2016-08-05T11:04:29.506Z,1026.21
2016-08-05T11:05:29.531Z,1025.17
2016-08-05T11:06:29.500Z,1024.31
2016-08-05T11:07:29.507Z,1022.75
2016-08-05T11:08:29.520Z,1019.9
2016-08-05T11:09:29.520Z,1018.82
2016-08-05T11:10:29.517Z,1017.86
2016-08-05T11:11:29.535Z,1014.11
2016-08-05T11:12:29.530Z,1011.6
2016-08-05T11:13:29.535Z,1012.81
2016-08-05T11:14:29.512Z,1015.92
2016-08-05T11:15:29.513Z,1020.45
2016-08-05T11:16:29.543Z,1022.86
2016-08-05T11:17:29.547Z,1024.41
2016-08-05T11:18:29.511Z,1026
2016-08-05T11:19:29.533Z,1028.61
2016-08-05T11:20:29.533Z,1031.19
2016-08-05T11:21:29.510Z,1030.73
2016-08-05T11:22:29.522Z,1032.12
2016-08-05T11:23:29.546Z,1034.93
2016-08-05T11:24:29.521Z,1037.48
2016-08-05T11:25:29.531Z,1040.33
2016-08-05T11:26:29.555Z,1043.01
2016-08-05T11:27:29.518Z,1046.83
2016-08-05T11:28:30.529Z,1049.08
2016-08-05T11:29:29.536Z,1049.64
2016-08-05T11:30:29.541Z,1051.84
2016-08-05T11:31:29.581Z,1055.77
2016-08-05T11:32:29.533Z,1060.35
2016-08-05T11:33:29.547Z,1062.63
2016-08-05T11:34:29.551Z,1062.12
2016-08-05T11:35:29.545Z,1060.07
2016-08-05T11:36:29.549Z,1057.86
2016-08-05T11:37:29.546Z,1056.66
2016-08-05T11:38:29.537Z,1056.98
2016-08-05T11:39:29.542Z,1059.45
2016-08-05T11:40:29.534Z,1062.7
2016-08-05T11:41:29.545Z,1064.39
2016-08-05T11:42:29.532Z,1066.98
2016-08-05T11:43:29.541Z,1067.94
2016-08-05T11:44:29.575Z,1068.91
2016-08-05T11:45:29.620Z,1069.98
2016-08-05T11:46:29.609Z,1070.67
2016-08-05T11:47:29.564Z,1070.86
2016-08-05T11:48:29.568Z,1072.01
2016-08-05T11:49:29.545Z,1072.89
2016-08-05T11:50:29.552Z,1073.07
2016-08-05T11:51:29.570Z,1072.39
2016-08-05T11:52:29.566Z,1069.53
2016-08-05T11:53:29.563Z,1064.87
2016-08-05T11:54:29.542Z,1059.23
2016-08-05T11:55:29.627Z,1050.55
2016-08-05T11:56:29.562Z,1042.56
2016-08-05T11:57:29.615Z,1037.99
2016-08-05T11:58:29.544Z,1035.4
2016-08-05T11:59:29.586Z,1035.05
2016-08-05T12:00:29.562Z,1035.32
2016-08-05T12:01:29.656Z,1034.47
2016-08-05T12:02:29.564Z,1034.11
2016-08-05T12:03:29.554Z,1032.03
2016-08-05T12:04:29.596Z,1029.52
2016-08-05T12:05:29.586Z,1028.75
2016-08-05T12:06:29.566Z,1027.4
2016-08-05T12:07:29.566Z,1026.41
2016-08-05T12:08:29.574Z,1024.75
2016-08-05T12:09:29.566Z,1023.23
2016-08-05T12:10:29.710Z,1019.7
2016-08-05T12:11:29.563Z,1015.48
2016-08-05T12:12:29.606Z,1010.6
2016-08-05T12:13:29.607Z,1005.29
2016-08-05T12:14:29.577Z,999.6
2016-08-05T12:15:29.599Z,994.07
2016-08-05T12:16:29.762Z,988.88
2016-08-05T12:17:29.596Z,982.59